Time;durP1;ratioP1;P1;durP2;ratioP2;P2;SDS_P1;SDS_P2;PMS_P1;PMS_P2;Temp;Humidity;BMP_temperature;BMP_pressure;BME280_temperature;BME280_humidity;BME280_pressure;Samples;Min_cycle;Max_cycle;Signal;HPM_P1;HPM_P2
2022/10/01 00:00:46;;;;;;;;;2.75;1.00;;;;;21.43;39.61;100306.81;4900060;29;54499;-41
2022/10/01 00:03:11;;;;;;;;;2.00;1.25;;;;;21.44;39.76;100305.06;4920042;28;45750;-41
2022/10/01 00:05:37;;;;;;;;;1.00;1.00;;;;;21.43;39.77;100293.66;4908895;28;45247;-42
2022/10/01 00:08:02;;;;;;;;;1.00;1.00;;;;;21.44;39.70;100276.06;4897818;28;59024;-41
2022/10/01 00:10:29;;;;;;;;;1.75;1.75;;;;;21.44;39.55;100281.31;4900741;28;45243;-42
2022/10/01 00:12:54;;;;;;;;;1.50;1.00;;;;;21.43;39.73;100269.09;4900034;28;45334;-41
2022/10/01 00:15:20;;;;;;;;;1.00;1.00;;;;;21.42;40.11;100264.75;4899785;28;45343;-46
2022/10/01 00:17:46;;;;;;;;;2.00;1.00;;;;;21.42;39.73;100264.75;4897774;29;46995;-44
2022/10/01 00:20:11;;;;;;;;;2.00;2.00;;;;;21.41;39.65;100237.53;4899769;29;45801;-43
2022/10/01 00:22:36;;;;;;;;;1.25;1.25;;;;;21.41;40.09;100231.44;4899743;28;45431;-42
2022/10/01 00:25:04;;;;;;;;;1.75;1.75;;;;;21.36;39.74;100233.53;4899409;28;45312;-42
2022/10/01 00:27:32;;;;;;;;;1.00;1.00;;;;;21.35;39.83;100222.16;4899003;29;45471;-43
2022/10/01 00:29:57;;;;;;;;;1.25;1.00;;;;;21.42;40.04;100223.41;4897762;29;45280;-42
2022/10/01 00:32:23;;;;;;;;;2.00;1.00;;;;;21.42;40.19;100209.41;4898885;29;45342;-41
2022/10/01 00:34:49;;;;;;;;;2.00;2.00;;;;;21.43;39.88;100216.34;4900319;28;45644;-42
2022/10/01 00:37:16;;;;;;;;;2.50;1.25;;;;;21.42;39.84;100222.59;4903251;28;47443;-42
2022/10/01 00:39:43;;;;;;;;;0.25;0.25;;;;;21.41;39.90;100224.34;4908014;29;45845;-42
2022/10/01 00:42:20;;;;;;;;;1.00;1.00;;;;;21.42;40.25;100226.03;4907105;28;45449;-44
2022/10/01 00:44:46;;;;;;;;;0.00;0.00;;;;;21.42;39.88;100231.31;4900087;28;45600;-42
2022/10/01 00:47:46;;;;;;;;;1.50;1.00;;;;;21.42;40.31;100233.94;4899677;29;45556;-43
2022/10/01 00:50:31;;;;;;;;;1.25;1.25;;;;;21.37;40.03;100222.03;4899647;28;45942;-44
2022/10/01 00:53:01;;;;;;;;;1.25;1.25;;;;;21.35;40.23;100222.16;4899356;28;45355;-41
2022/10/01 00:55:32;;;;;;;;;1.00;1.00;;;;;21.35;39.99;100221.28;4899914;28;45533;-42
2022/10/01 00:57:58;;;;;;;;;1.00;1.00;;;;;21.40;40.46;100235.03;4902223;28;45554;-42
2022/10/01 01:00:24;;;;;;;;;1.00;1.00;;;;;21.40;40.31;100230.56;4902248;28;45407;-43
2022/10/01 01:02:51;;;;;;;;;1.00;1.00;;;;;21.40;40.10;100229.75;4902087;28;45269;-41
2022/10/01 01:05:18;;;;;;;;;1.00;1.00;;;;;21.40;40.08;100220.03;4902437;28;45340;-41
2022/10/01 01:07:48;;;;;;;;;0.75;0.75;;;;;21.40;40.07;100222.66;4901880;28;45304;-41
2022/10/01 01:10:17;;;;;;;;;0.50;0.50;;;;;21.35;40.56;100216.03;4901759;28;45842;-42
2022/10/01 01:13:06;;;;;;;;;1.00;1.00;;;;;21.41;40.35;100232.25;4901888;28;45361;-41
2022/10/01 01:15:45;;;;;;;;;0.00;0.00;;;;;21.41;40.52;100226.16;4902749;28;45434;-43
2022/10/01 01:18:27;;;;;;;;;0.50;0.00;;;;;21.40;40.57;100229.75;4903616;28;46518;-41
2022/10/01 01:21:01;;;;;;;;;2.00;1.00;;;;;21.34;40.67;100206.41;4918604;28;45229;-43
2022/10/01 01:24:21;;;;;;;;;0.25;0.25;;;;;21.40;40.70;100235.03;4893660;29;45443;-43
2022/10/01 01:27:07;;;;;;;;;0.25;0.25;;;;;21.40;40.62;100225.31;4885476;29;45462;-44
2022/10/01 01:29:38;;;;;;;;;1.75;0.25;;;;;21.39;40.66;100214.88;4906867;28;46735;-43
2022/10/01 01:32:11;;;;;;;;;1.25;0.75;;;;;21.40;40.70;100232.38;4905996;29;45429;-42
2022/10/01 01:34:42;;;;;;;;;1.00;1.00;;;;;21.39;40.93;100202.53;4901515;29;45194;-43
2022/10/01 01:37:13;;;;;;;;;0.75;0.75;;;;;21.35;40.85;100205.47;4898270;28;45300;-42
2022/10/01 01:39:43;;;;;;;;;1.00;0.75;;;;;21.41;40.98;100205.91;4902752;28;47189;-42
2022/10/01 01:42:14;;;;;;;;;1.00;1.00;;;;;21.41;41.00;100189.25;4902123;28;45842;-43
2022/10/01 01:44:43;;;;;;;;;1.00;1.00;;;;;21.41;40.62;100191.91;4902645;28;45463;-42
2022/10/01 01:47:11;;;;;;;;;1.00;1.00;;;;;21.33;40.86;100188.94;4902296;28;45645;-42
2022/10/01 01:49:38;;;;;;;;;1.00;1.00;;;;;21.41;40.72;100194.53;4901596;28;47301;-42
2022/10/01 01:52:12;;;;;;;;;0.00;0.00;;;;;21.34;41.12;100185.34;4901474;28;45776;-42
2022/10/01 01:54:38;;;;;;;;;1.00;0.00;;;;;21.40;41.02;100193.66;4901845;28;45406;-42
2022/10/01 01:57:05;;;;;;;;;2.00;1.00;;;;;21.39;40.70;100186.69;4901484;28;45456;-43
2022/10/01 01:59:32;;;;;;;;;0.00;0.00;;;;;21.41;40.99;100189.25;4901355;28;45520;-42
2022/10/01 02:01:58;;;;;;;;;1.25;1.00;;;;;21.42;40.82;100190.94;4900879;28;45421;-42
2022/10/01 02:04:26;;;;;;;;;1.00;1.00;;;;;21.41;41.21;100184.81;4901228;28;45429;-43
2022/10/01 02:07:19;;;;;;;;;1.00;1.00;;;;;21.41;40.84;100178.72;4901330;28;45838;-43
2022/10/01 02:09:58;;;;;;;;;0.00;0.00;;;;;21.41;41.03;100191.91;4899365;29;48428;-41
2022/10/01 02:12:42;;;;;;;;;0.75;0.75;;;;;21.35;41.05;100163.31;4906539;28;45485;-41
2022/10/01 02:15:27;;;;;;;;;0.25;0.25;;;;;21.39;41.18;100186.69;4919378;28;45188;-42
2022/10/01 02:17:58;;;;;;;;;0.50;0.50;;;;;21.40;41.06;100166.47;4902020;28;45864;-42
2022/10/01 02:20:41;;;;;;;;;1.00;1.00;;;;;21.40;41.11;100182.28;4901440;28;45398;-41
2022/10/01 02:23:11;;;;;;;;;0.00;0.00;;;;;21.39;40.81;100176.16;4901086;28;45406;-41
2022/10/01 02:25:43;;;;;;;;;0.00;0.00;;;;;21.39;41.31;100164.78;4901549;28;45407;-43
2022/10/01 02:28:15;;;;;;;;;1.00;0.50;;;;;21.39;41.30;100170.06;4909248;28;45533;-43
2022/10/01 02:30:45;;;;;;;;;0.00;0.00;;;;;21.39;41.42;100164.78;4907633;28;45652;-44
2022/10/01 02:33:14;;;;;;;;;0.00;0.00;;;;;21.38;41.33;100169.22;4909025;28;45151;-43
2022/10/01 02:35:43;;;;;;;;;1.75;0.75;;;;;21.39;41.45;100164.78;4903997;28;45512;-42
2022/10/01 02:38:11;;;;;;;;;0.00;0.00;;;;;21.39;41.16;100170.88;4902472;28;45241;-41
2022/10/01 02:40:43;;;;;;;;;2.00;1.00;;;;;21.36;41.21;100165.00;4902103;28;46537;-43
2022/10/01 02:43:22;;;;;;;;;0.00;0.00;;;;;21.39;41.23;100154.25;4902211;28;45616;-42
2022/10/01 02:45:55;;;;;;;;;0.50;0.00;;;;;21.33;41.72;100154.69;4900604;29;45469;-43
2022/10/01 02:48:20;;;;;;;;;0.00;0.00;;;;;21.39;41.04;100154.25;4901668;28;45436;-42
2022/10/01 02:50:48;;;;;;;;;0.00;0.00;;;;;21.40;41.26;100156.75;4903351;28;46777;-40
2022/10/01 02:53:30;;;;;;;;;0.50;0.50;;;;;21.41;41.23;100154.97;4901658;28;45687;-41
2022/10/01 02:55:57;;;;;;;;;2.00;1.00;;;;;21.40;41.66;100132.22;4903439;28;45252;-42
2022/10/01 02:58:22;;;;;;;;;0.00;0.00;;;;;21.40;41.51;100130.41;4907292;28;45382;-41
2022/10/01 03:00:48;;;;;;;;;0.00;0.00;;;;;21.33;41.34;100102.78;4907808;28;63144;-41
2022/10/01 03:03:13;;;;;;;;;0.00;0.00;;;;;21.38;41.58;100108.59;4913790;28;45301;-41
2022/10/01 03:05:39;;;;;;;;;0.00;0.00;;;;;21.40;41.60;100126.94;4914193;28;51597;-41
2022/10/01 03:08:04;;;;;;;;;0.25;0.00;;;;;21.39;41.60;100118.16;4919796;29;45415;-42
2022/10/01 03:10:30;;;;;;;;;0.00;0.00;;;;;21.39;41.50;100117.34;4915523;29;45666;-41
2022/10/01 03:12:55;;;;;;;;;0.00;0.00;;;;;21.33;41.49;100107.25;4916151;28;45786;-40
2022/10/01 03:15:20;;;;;;;;;0.00;0.00;;;;;21.31;41.83;100088.88;4915956;28;45428;-41
2022/10/01 03:17:53;;;;;;;;;0.00;0.00;;;;;21.39;41.70;100101.53;4917216;28;44968;-41
2022/10/01 03:20:19;;;;;;;;;0.00;0.00;;;;;21.39;41.83;100102.34;4918039;28;46592;-42
2022/10/01 03:22:45;;;;;;;;;0.50;0.50;;;;;21.39;41.87;100128.72;4919532;28;45410;-41
2022/10/01 03:25:11;;;;;;;;;0.00;0.00;;;;;21.39;41.82;100118.16;4920736;28;44806;-43
2022/10/01 03:27:37;;;;;;;;;0.75;0.00;;;;;21.39;41.72;100117.34;4919906;28;45213;-42
2022/10/01 03:30:04;;;;;;;;;0.00;0.00;;;;;21.40;41.78;100113.75;4915125;29;45419;-41
2022/10/01 03:32:29;;;;;;;;;0.00;0.00;;;;;21.33;41.74;100121.25;4904635;28;45342;-42
2022/10/01 03:34:55;;;;;;;;;0.00;0.00;;;;;21.40;41.71;100132.22;4903743;28;45424;-42
2022/10/01 03:37:20;;;;;;;;;2.25;1.00;;;;;21.33;42.16;100091.44;4919397;28;45332;-45
2022/10/01 03:39:45;;;;;;;;;0.00;0.00;;;;;21.40;41.83;100113.75;4921203;28;46147;-42
2022/10/01 03:42:11;;;;;;;;;0.00;0.00;;;;;21.39;41.84;100112.91;4920479;28;45213;-41
2022/10/01 03:44:36;;;;;;;;;0.00;0.00;;;;;21.39;42.00;100120.81;4919667;28;45374;-41
2022/10/01 03:47:01;;;;;;;;;0.00;0.00;;;;;21.31;41.75;100099.41;4919033;28;45852;-44
2022/10/01 03:49:27;;;;;;;;;0.00;0.00;;;;;21.38;41.96;100105.09;4915841;28;46550;-41
2022/10/01 03:51:53;;;;;;;;;0.00;0.00;;;;;21.39;42.02;100107.63;4899579;28;45961;-42
2022/10/01 03:54:19;;;;;;;;;0.00;0.00;;;;;21.39;41.97;100118.16;4899894;28;45456;-41
2022/10/01 03:56:44;;;;;;;;;0.00;0.00;;;;;21.39;41.90;100096.25;4899943;28;45576;-42
2022/10/01 03:59:10;;;;;;;;;0.00;0.00;;;;;21.40;42.21;100145.38;4901127;28;45440;-41
2022/10/01 04:01:36;;;;;;;;;1.00;0.00;;;;;21.38;42.24;100132.31;4918029;28;45633;-43
2022/10/01 04:04:02;;;;;;;;;0.00;0.00;;;;;21.39;42.15;100112.91;4898831;28;45802;-44
2022/10/01 04:06:28;;;;;;;;;0.00;0.00;;;;;21.40;42.22;100140.13;4899899;28;45616;-41
2022/10/01 04:08:53;;;;;;;;;0.00;0.00;;;;;21.40;42.50;100163.84;4898884;28;45367;-43
2022/10/01 04:11:19;;;;;;;;;0.00;0.00;;;;;21.39;42.07;100160.34;4898917;28;46266;-41
2022/10/01 04:13:44;;;;;;;;;0.00;0.00;;;;;21.39;42.05;100165.63;4897871;29;45395;-42
2022/10/01 04:16:09;;;;;;;;;0.00;0.00;;;;;21.39;42.23;100164.78;4900256;29;45538;-41
2022/10/01 04:18:35;;;;;;;;;0.00;0.00;;;;;21.39;42.07;100159.50;4900776;28;45221;-42
2022/10/01 04:21:00;;;;;;;;;0.00;0.00;;;;;21.40;42.35;100169.13;4902044;28;45236;-40
2022/10/01 04:23:26;;;;;;;;;0.00;0.00;;;;;21.36;42.50;100160.59;4907450;28;45232;-42
2022/10/01 04:25:51;;;;;;;;;0.00;0.00;;;;;21.40;42.33;100191.03;4909820;28;45549;-42
2022/10/01 04:28:17;;;;;;;;;0.00;0.00;;;;;21.40;42.57;100192.84;4913326;29;45680;-41
2022/10/01 04:30:44;;;;;;;;;0.00;0.00;;;;;21.38;42.52;100195.59;4916253;28;45719;-42
2022/10/01 04:33:15;;;;;;;;;0.00;0.00;;;;;21.40;42.64;100190.19;4912427;29;45493;-42
2022/10/01 04:35:42;;;;;;;;;0.00;0.00;;;;;21.33;42.33;100181.03;4903273;28;45460;-42
2022/10/01 04:38:12;;;;;;;;;0.00;0.00;;;;;21.40;42.37;100187.56;4902475;28;47092;-41
2022/10/01 04:40:38;;;;;;;;;0.00;0.00;;;;;21.38;42.55;100195.59;4902520;28;45193;-42
2022/10/01 04:43:08;;;;;;;;;0.00;0.00;;;;;21.33;42.54;100178.41;4900637;29;45183;-41
2022/10/01 04:45:34;;;;;;;;;0.00;0.00;;;;;21.39;42.27;100185.88;4902410;28;45522;-42
2022/10/01 04:47:59;;;;;;;;;0.00;0.00;;;;;21.39;42.53;100207.78;4900903;29;46214;-42
2022/10/01 04:50:26;;;;;;;;;0.00;0.00;;;;;21.39;42.55;100213.06;4904945;28;45379;-42
2022/10/01 04:52:51;;;;;;;;;0.00;0.00;;;;;21.40;42.71;100219.19;4902620;29;45482;-43
2022/10/01 04:55:18;;;;;;;;;0.00;0.00;;;;;21.30;42.68;100213.69;4902909;29;45287;-41
2022/10/01 04:57:44;;;;;;;;;0.00;0.00;;;;;21.39;42.84;100233.31;4901864;28;46658;-42
2022/10/01 05:00:14;;;;;;;;;0.00;0.00;;;;;21.39;43.08;100234.16;4902616;28;45233;-43
2022/10/01 05:02:39;;;;;;;;;0.00;0.00;;;;;21.36;43.12;100222.97;4902729;28;45299;-41
2022/10/01 05:05:06;;;;;;;;;0.00;0.00;;;;;21.39;43.56;100230.69;4902608;28;45786;-43
2022/10/01 05:07:33;;;;;;;;;0.00;0.00;;;;;21.37;43.20;100227.31;4901903;29;46701;-42
2022/10/01 05:09:59;;;;;;;;;0.00;0.00;;;;;21.29;43.65;100222.56;4902291;28;45905;-41
2022/10/01 05:12:25;;;;;;;;;0.00;0.00;;;;;21.36;43.38;100236.16;4905894;28;45231;-42
2022/10/01 05:14:55;;;;;;;;;0.00;0.00;;;;;21.36;43.97;100228.25;4914118;28;45656;-40
2022/10/01 05:17:21;;;;;;;;;0.00;0.00;;;;;21.35;43.67;100232.69;4913015;29;45515;-41
2022/10/01 05:19:47;;;;;;;;;0.00;0.00;;;;;21.33;44.20;100233.75;4906593;28;45318;-43
2022/10/01 05:22:13;;;;;;;;;2.00;2.00;;;;;21.31;44.32;100252.28;4910496;29;45445;-41
2022/10/01 05:24:39;;;;;;;;;1.00;1.00;;;;;21.30;44.69;100251.47;4903053;28;45220;-42
2022/10/01 05:27:12;;;;;;;;;1.50;1.50;;;;;21.31;44.90;100252.28;4900963;28;46159;-41
2022/10/01 05:29:40;;;;;;;;;1.25;1.25;;;;;21.31;44.27;100252.28;4901536;28;45356;-40
2022/10/01 05:32:06;;;;;;;;;2.00;2.00;;;;;21.33;44.50;100249.56;4900320;29;45244;-41
2022/10/01 05:34:31;;;;;;;;;2.25;2.25;;;;;21.34;44.60;100267.06;4902542;28;45881;-41
2022/10/01 05:36:57;;;;;;;;;4.00;4.00;;;;;21.34;44.69;100267.06;4902793;28;45881;-41
2022/10/01 05:39:22;;;;;;;;;6.00;6.00;;;;;21.34;44.48;100265.28;4903041;28;45257;-39
2022/10/01 05:41:48;;;;;;;;;7.50;5.00;;;;;21.29;44.89;100262.94;4902618;28;45412;-41
2022/10/01 05:44:13;;;;;;;;;6.25;5.50;;;;;21.36;44.49;100273.06;4901572;28;45370;-41
2022/10/01 05:46:38;;;;;;;;;6.25;6.00;;;;;21.36;44.81;100278.34;4901691;28;46324;-41
2022/10/01 05:49:06;;;;;;;;;7.00;7.00;;;;;21.37;44.53;100287.94;4899832;28;45290;-42
2022/10/01 05:51:32;;;;;;;;;7.50;6.00;;;;;21.36;44.52;100291.53;4901574;28;45477;-41
2022/10/01 05:53:58;;;;;;;;;7.00;7.00;;;;;21.38;44.50;100305.44;4901576;28;45541;-42
2022/10/01 05:56:24;;;;;;;;;7.75;7.75;;;;;21.30;44.75;100290.13;4901698;28;45329;-41
2022/10/01 05:58:49;;;;;;;;;8.50;7.25;;;;;21.30;44.70;100292.78;4899941;29;46042;-41
2022/10/01 06:01:15;;;;;;;;;10.00;9.00;;;;;21.38;44.78;100313.34;4901766;28;45307;-41
2022/10/01 06:03:41;;;;;;;;;7.00;7.00;;;;;21.37;44.51;100314.31;4902595;28;45221;-41
2022/10/01 06:06:06;;;;;;;;;8.75;8.75;;;;;21.39;44.38;100317.69;4909037;28;46220;-42
2022/10/01 06:08:39;;;;;;;;;10.00;10.00;;;;;21.38;44.77;100321.25;4917910;28;45413;-41
2022/10/01 06:11:04;;;;;;;;;10.00;9.50;;;;;21.37;44.51;100325.72;4899708;28;45439;-41
2022/10/01 06:13:30;;;;;;;;;9.25;7.75;;;;;21.40;44.11;100329.91;4901708;28;45586;-42
2022/10/01 06:15:56;;;;;;;;;7.00;7.00;;;;;21.31;44.68;100326.09;4901746;28;46301;-42
2022/10/01 06:18:21;;;;;;;;;7.00;7.00;;;;;21.31;44.75;100336.63;4901094;28;45325;-42
2022/10/01 06:20:46;;;;;;;;;6.00;6.00;;;;;21.39;44.52;100349.31;4900316;28;58143;-40
2022/10/01 06:23:12;;;;;;;;;9.00;9.00;;;;;21.40;44.81;100353.66;4901165;28;45424;-41
2022/10/01 06:25:40;;;;;;;;;9.75;9.75;;;;;21.39;44.85;100349.31;4901385;28;46808;-41
2022/10/01 06:28:08;;;;;;;;;8.75;8.00;;;;;21.39;44.35;100349.31;4900791;29;45349;-40
2022/10/01 06:30:36;;;;;;;;;8.00;8.00;;;;;21.40;44.57;100356.28;4901321;28;45332;-41
2022/10/01 06:33:03;;;;;;;;;7.25;7.25;;;;;21.39;44.59;100359.88;4901419;28;45385;-41
2022/10/01 06:35:33;;;;;;;;;6.75;6.75;;;;;21.33;44.61;100344.47;4900897;28;47251;-42
2022/10/01 06:38:02;;;;;;;;;8.00;8.00;;;;;21.41;44.78;100363.25;4911027;28;45225;-41
2022/10/01 06:40:28;;;;;;;;;7.00;7.00;;;;;21.40;44.33;100359.75;4916693;28;45525;-41
2022/10/01 06:42:57;;;;;;;;;7.75;7.75;;;;;21.40;44.59;100369.47;4904241;28;45422;-41
2022/10/01 06:45:26;;;;;;;;;6.25;6.00;;;;;21.41;44.62;100368.53;4916524;28;46772;-40
2022/10/01 06:47:57;;;;;;;;;7.00;7.00;;;;;21.34;44.66;100362.81;4915149;28;45152;-42
2022/10/01 06:50:23;;;;;;;;;7.25;7.25;;;;;21.41;44.25;100364.06;4911184;28;45240;-41
2022/10/01 06:52:49;;;;;;;;;9.00;8.00;;;;;21.41;44.71;100369.34;4907751;28;45311;-42
2022/10/01 06:55:16;;;;;;;;;8.00;8.00;;;;;21.41;44.74;100376.44;4902931;28;45524;-41
2022/10/01 06:57:41;;;;;;;;;6.75;6.75;;;;;21.33;44.66;100361.13;4903026;28;45791;-40
2022/10/01 07:00:07;;;;;;;;;6.50;6.50;;;;;21.42;44.41;100381.59;4899658;29;45417;-40
2022/10/01 07:02:32;;;;;;;;;6.00;6.00;;;;;21.42;44.50;100375.47;4900220;28;45408;-40
2022/10/01 07:04:58;;;;;;;;;7.00;7.00;;;;;21.42;44.51;100384.22;4898694;29;48548;-40
2022/10/01 07:07:30;;;;;;;;;7.25;7.25;;;;;21.42;44.57;100389.50;4900176;28;45425;-41
2022/10/01 07:09:57;;;;;;;;;7.00;7.00;;;;;21.36;44.99;100378.50;4898702;29;45320;-42
2022/10/01 07:12:22;;;;;;;;;6.75;5.75;;;;;21.43;44.50;100393.00;4900420;28;45360;-42
2022/10/01 07:14:48;;;;;;;;;5.25;5.25;;;;;21.43;44.73;100401.72;4899685;28;46904;-41
2022/10/01 07:17:13;;;;;;;;;4.25;4.25;;;;;21.37;44.69;100398.66;4900341;28;45281;-42
2022/10/01 07:19:38;;;;;;;;;5.00;5.00;;;;;21.38;44.63;100408.25;4900571;28;45822;-41
2022/10/01 07:22:04;;;;;;;;;6.75;5.75;;;;;21.43;44.77;100419.34;4900208;29;45554;-41
2022/10/01 07:24:29;;;;;;;;;6.25;5.75;;;;;21.44;45.19;100426.31;4899743;29;52467;-42
2022/10/01 07:26:54;;;;;;;;;7.00;6.00;;;;;21.43;44.94;100424.63;4899676;29;54375;-39
2022/10/01 07:29:24;;;;;;;;;3.75;3.75;;;;;21.44;44.93;100431.59;4900000;28;45442;-40
2022/10/01 07:31:50;;;;;;;;;5.25;5.25;;;;;21.45;45.06;100434.13;4900124;28;45319;-41
2022/10/01 07:34:16;;;;;;;;;6.50;6.50;;;;;21.38;45.02;100426.72;4899841;28;46981;-40
2022/10/01 07:36:44;;;;;;;;;7.00;5.50;;;;;21.43;45.41;100441.28;4900172;28;45294;-41
2022/10/01 07:39:09;;;;;;;;;5.25;5.25;;;;;21.44;44.72;100450.88;4897911;29;45474;-42
2022/10/01 07:41:34;;;;;;;;;6.25;6.00;;;;;21.40;45.28;100446.75;4900056;28;45608;-40
2022/10/01 07:44:02;;;;;;;;;5.00;5.00;;;;;21.44;44.99;100437.69;4899030;28;47395;-40
2022/10/01 07:46:27;;;;;;;;;5.00;5.00;;;;;21.39;45.01;100438.94;4899183;28;45343;-39
2022/10/01 07:48:53;;;;;;;;;4.25;4.25;;;;;21.45;44.94;100457.00;4899736;28;52648;-42
2022/10/01 07:51:18;;;;;;;;;4.25;4.25;;;;;21.44;45.41;100453.53;4898523;29;45572;-39
2022/10/01 07:53:46;;;;;;;;;5.00;5.00;;;;;21.45;45.00;100464.91;4899482;28;45450;-40
2022/10/01 07:56:11;;;;;;;;;10.50;5.00;;;;;21.39;45.08;100463.50;4901240;28;45874;-41
2022/10/01 07:58:37;;;;;;;;;3.67;3.67;;;;;21.46;45.19;100479.78;4906944;29;50772;-40
2022/10/01 08:01:03;;;;;;;;;5.00;4.00;;;;;21.44;45.14;100479.06;4906282;28;45311;-40
2022/10/01 08:03:28;;;;;;;;;6.00;4.25;;;;;21.45;45.05;100493.91;4904013;28;46435;-41
2022/10/01 08:05:54;;;;;;;;;4.75;4.75;;;;;21.45;45.13;100489.50;4905828;28;45523;-40
2022/10/01 08:08:19;;;;;;;;;3.50;3.25;;;;;21.39;45.13;100476.69;4907471;28;45351;-40
2022/10/01 08:10:45;;;;;;;;;3.50;3.50;;;;;21.46;45.14;100487.69;4904628;29;45323;-42
2022/10/01 08:13:14;;;;;;;;;6.25;3.00;;;;;21.41;44.98;100473.97;4903895;28;47099;-41
2022/10/01 08:15:41;;;;;;;;;4.75;4.00;;;;;21.48;44.91;100491.06;4904370;28;45295;-41
2022/10/01 08:18:07;;;;;;;;;5.00;4.00;;;;;21.47;44.99;100497.28;4903617;28;45501;-41
2022/10/01 08:20:33;;;;;;;;;3.00;3.00;;;;;21.47;45.27;100494.66;4911379;29;45963;-41
2022/10/01 08:23:03;;;;;;;;;3.00;3.00;;;;;21.47;44.84;100507.84;4914332;28;46509;-41
2022/10/01 08:25:28;;;;;;;;;4.00;4.00;;;;;21.45;44.75;100500.03;4907952;29;45252;-44
2022/10/01 08:27:54;;;;;;;;;4.00;4.00;;;;;21.49;45.30;100510.41;4901400;28;45452;-40
2022/10/01 08:30:19;;;;;;;;;3.50;3.50;;;;;21.48;45.05;100506.91;4901070;29;45604;-41
2022/10/01 08:32:45;;;;;;;;;4.75;3.00;;;;;21.47;45.12;100507.84;4901060;28;47239;-41
2022/10/01 15:55:14;;;;;;;;;2.00;1.00;;;;;21.63;43.32;100916.53;4916844;28;45488;-44
2022/10/01 15:57:40;;;;;;;;;2.75;1.00;;;;;21.64;43.43;100925.31;4902171;28;45861;-44
2022/10/01 16:00:18;;;;;;;;;4.25;3.00;;;;;21.64;43.82;100930.56;4900302;29;45350;-60
2022/10/01 16:02:44;;;;;;;;;1.00;1.00;;;;;21.64;43.18;100933.22;4899987;28;45488;-65
2022/10/01 16:05:16;;;;;;;;;1.75;1.00;;;;;21.60;43.05;100938.66;4914792;28;45664;-65
2022/10/01 16:07:47;;;;;;;;;1.00;1.00;;;;;21.61;43.42;100944.75;4906010;28;45567;-65
2022/10/01 16:10:35;;;;;;;;;3.00;1.25;;;;;21.60;43.28;100948.38;4905855;29;45381;-69
2022/10/01 16:13:29;;;;;;;;;3.25;1.00;;;;;21.59;43.64;100952.78;4903473;29;45458;-69
2022/10/01 16:16:11;;;;;;;;;3.00;2.00;;;;;21.58;43.64;100951.03;4902814;29;46028;-69
2022/10/01 16:18:41;;;;;;;;;2.25;2.25;;;;;21.59;43.53;100957.22;4906143;28;45873;-67
2022/10/01 16:21:08;;;;;;;;;3.25;2.75;;;;;21.58;43.32;100961.59;4899168;28;45182;-68
2022/10/01 16:23:48;;;;;;;;;4.50;1.75;;;;;21.58;43.52;100960.75;4899727;28;45640;-61
2022/10/01 16:26:33;;;;;;;;;3.25;1.00;;;;;21.57;43.68;100954.63;4900560;28;46542;-67
2022/10/01 16:29:03;;;;;;;;;3.50;2.00;;;;;21.52;43.44;100951.41;4907972;28;45429;-61
2022/10/01 16:31:38;;;;;;;;;2.00;1.50;;;;;21.50;43.80;100953.28;4927003;28;45476;-65
2022/10/01 16:34:15;;;;;;;;;3.00;1.50;;;;;21.53;43.82;100963.66;4926128;28;45708;-62
2022/10/01 16:36:41;;;;;;;;;4.00;2.00;;;;;21.57;43.76;100974.88;4905808;29;47224;-62
2022/10/01 16:39:07;;;;;;;;;1.00;1.00;;;;;21.54;43.70;100973.28;4891888;29;45357;-65
2022/10/01 16:41:34;;;;;;;;;3.75;2.50;;;;;21.53;43.92;100971.56;4908183;28;45346;-63
2022/10/01 16:44:02;;;;;;;;;2.00;2.00;;;;;21.55;43.73;100982.88;4909379;28;45241;-68
2022/10/01 16:46:28;;;;;;;;;2.75;2.75;;;;;21.55;43.89;100992.56;4920961;28;45701;-61
2022/10/01 16:49:00;;;;;;;;;4.00;2.25;;;;;21.56;44.18;101005.66;4912714;28;45464;-68
2022/10/01 16:51:26;;;;;;;;;3.50;1.75;;;;;21.50;44.04;100992.84;4914437;28;46011;-61
2022/10/01 16:53:53;;;;;;;;;2.00;2.00;;;;;21.55;43.73;101003.13;4913122;28;45204;-59
2022/10/01 16:56:18;;;;;;;;;2.00;2.00;;;;;21.52;44.01;101009.44;4907725;28;47824;-66
2022/10/01 16:58:46;;;;;;;;;2.25;2.25;;;;;21.54;44.19;101018.13;4909889;28;45349;-66
2022/10/01 17:01:14;;;;;;;;;3.50;3.00;;;;;21.56;44.21;101029.41;4907694;28;45421;-65
2022/10/01 17:03:48;;;;;;;;;2.25;2.25;;;;;21.54;44.02;101023.38;4926651;28;45390;-68
2022/10/01 17:06:13;;;;;;;;;2.75;2.75;;;;;21.54;43.60;101033.94;4921583;28;45425;-73
2022/10/01 17:08:44;;;;;;;;;4.25;2.00;;;;;21.52;43.85;101025.25;4907441;28;45279;-68
2022/10/01 17:11:10;;;;;;;;;6.00;3.00;;;;;21.55;43.89;101029.50;4908406;28;45383;-72
2022/10/01 17:13:36;;;;;;;;;4.00;2.00;;;;;21.55;44.17;101030.34;4914476;28;45322;-70
2022/10/01 17:16:04;;;;;;;;;5.00;2.75;;;;;21.53;43.69;101031.38;4910802;28;46396;-67
2022/10/01 17:18:30;;;;;;;;;5.50;4.25;;;;;21.55;43.64;101038.25;4912687;28;45338;-68
2022/10/01 17:20:55;;;;;;;;;2.25;2.00;;;;;21.56;43.74;101039.94;4907508;28;45197;-66
2022/10/01 17:23:23;;;;;;;;;4.25;4.00;;;;;21.57;43.75;101048.72;4908765;28;45564;-64
2022/10/01 17:25:49;;;;;;;;;5.00;4.00;;;;;21.54;43.92;101049.75;4907573;28;45377;-63
2022/10/01 17:28:18;;;;;;;;;3.50;3.50;;;;;21.55;43.96;101071.69;4906924;28;45407;-63
2022/10/01 17:30:47;;;;;;;;;4.25;3.25;;;;;21.54;43.74;101073.50;4914606;28;45304;-66
2022/10/01 17:33:18;;;;;;;;;4.00;4.00;;;;;21.50;43.69;101069.31;4910263;28;45401;-67
2022/10/01 17:35:50;;;;;;;;;5.00;3.00;;;;;21.49;44.04;101078.16;4908723;28;46897;-70
2022/10/01 17:38:16;;;;;;;;;3.00;3.00;;;;;21.50;44.04;101085.13;4921820;28;45334;-65
2022/10/01 17:40:41;;;;;;;;;5.50;3.75;;;;;21.51;43.93;101096.53;4920889;28;45505;-71
2022/10/01 17:43:11;;;;;;;;;4.00;3.00;;;;;21.49;43.59;101101.91;4920956;28;45505;-67
2022/10/01 17:45:36;;;;;;;;;4.50;2.75;;;;;21.52;43.77;101103.50;4920403;28;46530;-63
2022/10/01 17:48:02;;;;;;;;;3.00;3.00;;;;;21.54;43.80;101096.38;4920208;28;45333;-71
2022/10/01 17:50:28;;;;;;;;;4.25;3.75;;;;;21.58;44.13;101108.47;4918993;28;45234;-62
2022/10/01 17:52:53;;;;;;;;;3.75;2.50;;;;;21.60;43.75;101111.91;4901663;28;45554;-63
2022/10/01 17:55:20;;;;;;;;;3.00;3.00;;;;;21.62;43.56;101113.50;4901263;29;45403;-68
2022/10/01 17:57:45;;;;;;;;;2.00;2.00;;;;;21.65;43.69;101124.81;4901640;28;45499;-65
2022/10/01 18:00:11;;;;;;;;;3.75;3.00;;;;;21.67;43.81;101130.84;4902461;28;45329;-63
2022/10/01 18:02:40;;;;;;;;;3.50;2.00;;;;;21.69;43.71;101131.63;4904461;28;45596;-68
2022/10/01 18:05:08;;;;;;;;;7.00;5.00;;;;;21.68;43.87;101137.81;4899350;28;48308;-66
2022/10/01 18:07:35;;;;;;;;;3.25;3.25;;;;;21.72;43.60;101144.66;4915883;28;46410;-69
2022/10/01 18:10:04;;;;;;;;;5.75;2.50;;;;;21.75;43.59;101150.59;4899873;29;45436;-71
2022/10/01 18:12:30;;;;;;;;;6.00;4.75;;;;;21.75;43.57;101157.69;4901403;28;45334;-69
2022/10/01 18:15:01;;;;;;;;;5.50;3.00;;;;;21.77;43.77;101161.09;4899305;29;47859;-76
2022/10/01 18:17:31;;;;;;;;;5.00;3.50;;;;;21.78;43.36;101168.03;4912958;28;45451;-74
2022/10/01 18:19:56;;;;;;;;;4.25;3.00;;;;;21.77;43.74;101169.00;4920214;28;45480;-68
2022/10/01 18:22:35;;;;;;;;;4.50;3.00;;;;;21.78;43.43;101175.94;4918808;28;45314;-70
2022/10/01 18:25:05;;;;;;;;;4.50;4.50;;;;;21.80;43.66;101176.72;4901539;28;45491;-71
2022/10/01 18:27:31;;;;;;;;;4.75;3.75;;;;;21.80;43.62;101187.28;4900645;28;45239;-65
2022/10/01 18:29:56;;;;;;;;;6.00;4.00;;;;;21.82;43.44;101188.03;4900725;28;45513;-59
2022/10/01 18:32:30;;;;;;;;;5.00;3.50;;;;;21.84;43.60;101186.19;4901570;28;45849;-58
2022/10/01 18:34:59;;;;;;;;;3.50;3.50;;;;;21.84;43.49;101194.09;4908892;29;47096;-58
2022/10/01 18:37:33;;;;;;;;;6.25;3.50;;;;;21.85;43.69;101182.59;4901032;28;45442;-57
2022/10/01 18:40:01;;;;;;;;;4.25;3.00;;;;;21.84;43.37;101191.47;4899767;28;45453;-57
2022/10/01 18:42:42;;;;;;;;;4.00;3.50;;;;;21.84;43.49;101191.47;4901146;28;45480;-59
2022/10/01 18:45:40;;;;;;;;;3.75;2.00;;;;;21.85;43.40;101192.28;4900397;28;45667;-58
2022/10/01 18:48:18;;;;;;;;;6.00;2.50;;;;;21.85;43.21;101202.84;4896986;28;45466;-58
2022/10/01 18:50:58;;;;;;;;;5.25;4.00;;;;;21.84;43.49;101196.72;4899229;28;45394;-54